createdAt,value
2018-09-25T00:01:38.632Z,22.45
2018-09-25T00:04:12.482Z,22.45
2018-09-25T00:06:46.216Z,22.45
2018-09-25T00:09:19.690Z,22.43
2018-09-25T00:11:53.148Z,22.44
2018-09-25T00:14:26.708Z,22.42
2018-09-25T00:17:00.200Z,22.43
2018-09-25T00:19:33.800Z,22.43
2018-09-25T00:22:07.317Z,22.42
2018-09-25T00:24:40.821Z,22.43
2018-09-25T00:27:14.512Z,22.42
2018-09-25T00:29:48.274Z,22.40
2018-09-25T00:32:21.945Z,22.40
2018-09-25T00:34:55.682Z,22.39
2018-09-25T00:37:29.393Z,22.40
2018-09-25T00:40:03.017Z,22.38
2018-09-25T00:42:36.416Z,22.38
2018-09-25T00:45:10.051Z,22.37
2018-09-25T00:47:43.548Z,22.37
2018-09-25T00:50:17.164Z,22.37
2018-09-25T00:52:50.928Z,22.37
2018-09-25T00:55:24.716Z,22.36
2018-09-25T01:00:48.682Z,22.36
2018-09-25T01:03:22.323Z,22.35
2018-09-25T01:05:55.903Z,22.36
2018-09-25T01:08:29.595Z,22.36
2018-09-25T01:11:03.074Z,22.35
2018-09-25T01:13:36.723Z,22.35
2018-09-25T01:16:10.212Z,22.34
2018-09-25T01:18:43.809Z,22.34
2018-09-25T01:21:17.196Z,22.34
2018-09-25T01:23:50.885Z,22.34
2018-09-25T01:29:15.617Z,22.33
2018-09-25T01:31:49.228Z,22.32
2018-09-25T01:34:22.837Z,22.32
2018-09-25T01:36:56.539Z,22.33
2018-09-25T01:39:29.989Z,22.33
2018-09-25T01:42:03.557Z,22.33
2018-09-25T01:44:37.273Z,22.32
2018-09-25T01:47:10.967Z,22.32
2018-09-25T01:49:44.739Z,22.32
2018-09-25T01:52:18.286Z,22.31
2018-09-25T01:54:51.922Z,22.32
2018-09-25T01:57:25.521Z,22.32
2018-09-25T01:59:59.235Z,22.31
2018-09-25T02:02:32.773Z,22.31
2018-09-25T02:05:06.190Z,22.31
2018-09-25T02:07:39.695Z,22.31
2018-09-25T02:10:13.239Z,22.31
2018-09-25T02:12:46.875Z,22.31
2018-09-25T02:15:20.572Z,22.30
2018-09-25T02:17:53.988Z,22.30
2018-09-25T02:20:27.687Z,22.29
2018-09-25T02:23:01.156Z,22.30
2018-09-25T02:25:34.791Z,22.31
2018-09-25T02:28:08.613Z,22.29
2018-09-25T02:30:42.173Z,22.30
2018-09-25T02:33:15.648Z,22.29
2018-09-25T02:35:49.339Z,22.28
2018-09-25T02:38:22.912Z,22.28
2018-09-25T02:40:56.580Z,22.29
2018-09-25T02:43:30.181Z,22.28
2018-09-25T02:46:03.884Z,22.27
2018-09-25T02:48:37.624Z,22.27
2018-09-25T02:51:11.391Z,22.27
2018-09-25T02:53:45.115Z,22.28
2018-09-25T02:56:18.855Z,22.27
2018-09-25T02:58:52.682Z,22.26
2018-09-25T03:01:26.168Z,22.27
2018-09-25T03:03:59.959Z,22.27
2018-09-25T03:06:33.770Z,22.27
2018-09-25T03:09:07.310Z,22.29
2018-09-25T03:11:40.827Z,22.31
2018-09-25T03:14:14.859Z,22.30
2018-09-25T03:16:48.444Z,22.29
2018-09-25T03:19:22.027Z,22.25
2018-09-25T03:21:55.652Z,22.24
2018-09-25T03:24:29.267Z,22.24
2018-09-25T03:27:02.851Z,22.25
2018-09-25T03:29:36.487Z,22.26
2018-09-25T03:32:10.247Z,22.25
2018-09-25T03:34:43.728Z,22.22
2018-09-25T03:37:17.288Z,22.19
2018-09-25T03:39:50.861Z,22.18
2018-09-25T03:42:24.568Z,22.17
2018-09-25T03:44:58.034Z,22.17
2018-09-25T03:47:31.652Z,22.15
2018-09-25T03:50:05.263Z,22.14
2018-09-25T03:52:38.897Z,22.15
2018-09-25T03:55:12.663Z,22.12
2018-09-25T03:57:46.327Z,22.16
2018-09-25T04:00:19.891Z,22.13
2018-09-25T04:02:53.363Z,22.14
2018-09-25T04:05:26.771Z,22.13
2018-09-25T04:08:07.219Z,22.08
2018-09-25T04:10:41.063Z,22.06
2018-09-25T04:13:14.771Z,22.06
2018-09-25T04:15:48.235Z,22.04
2018-09-25T04:18:21.862Z,22.06
2018-09-25T04:20:55.540Z,22.05
2018-09-25T04:23:29.209Z,22.05
2018-09-25T04:26:02.666Z,22.04
2018-09-25T04:28:37.014Z,22.02
2018-09-25T04:31:10.676Z,22.01
2018-09-25T04:33:44.424Z,22.02
2018-09-25T04:36:17.985Z,22.00
2018-09-25T04:38:51.549Z,22.03
2018-09-25T04:41:25.240Z,22.02
2018-09-25T04:43:59.105Z,22.05
2018-09-25T04:46:32.768Z,22.07
2018-09-25T04:49:06.426Z,22.10
2018-09-25T04:51:40.142Z,22.11
2018-09-25T04:54:13.749Z,22.11
2018-09-25T04:56:47.350Z,22.13
2018-09-25T04:59:20.965Z,22.14
2018-09-25T05:01:54.505Z,22.13
2018-09-25T05:04:28.088Z,22.14
2018-09-25T05:07:01.627Z,22.15
2018-09-25T05:09:35.161Z,22.16
2018-09-25T05:12:08.851Z,22.16
2018-09-25T05:14:42.599Z,22.16
2018-09-25T05:17:16.270Z,22.13
2018-09-25T05:19:49.927Z,22.12
2018-09-25T05:22:23.659Z,22.12
2018-09-25T05:24:57.324Z,22.13
2018-09-25T05:27:30.971Z,22.13
2018-09-25T05:30:04.551Z,22.15
2018-09-25T05:32:38.437Z,22.15
2018-09-25T05:35:12.097Z,22.15
2018-09-25T05:37:45.643Z,22.14
2018-09-25T05:40:19.237Z,22.12
2018-09-25T05:42:52.827Z,22.01
2018-09-25T05:45:26.526Z,21.99
2018-09-25T05:48:00.323Z,21.96
2018-09-25T05:50:34.371Z,21.96
2018-09-25T05:53:08.129Z,22.00
2018-09-25T05:55:42.014Z,22.01
2018-09-25T05:58:15.513Z,22.02
2018-09-25T06:00:49.136Z,22.02
2018-09-25T06:03:22.733Z,22.04
2018-09-25T06:05:56.256Z,22.03
2018-09-25T06:08:30.195Z,22.04
2018-09-25T06:11:03.659Z,22.05
2018-09-25T06:13:37.251Z,22.15
2018-09-25T06:16:10.890Z,22.17
2018-09-25T06:18:44.639Z,22.12
2018-09-25T06:21:18.103Z,22.12
2018-09-25T06:23:51.667Z,22.11
2018-09-25T06:26:25.279Z,22.10
2018-09-25T06:28:58.893Z,22.10
2018-09-25T06:31:32.691Z,22.07
2018-09-25T06:34:06.453Z,22.04
2018-09-25T06:36:40.154Z,21.97
2018-09-25T06:39:14.337Z,21.97
2018-09-25T06:41:48.042Z,22.00
2018-09-25T06:44:21.503Z,22.00
2018-09-25T06:46:55.203Z,22.01
2018-09-25T06:49:28.942Z,22.02
2018-09-25T06:52:02.662Z,22.03
2018-09-25T06:54:36.474Z,22.04
2018-09-25T06:57:10.113Z,22.04
2018-09-25T06:59:43.636Z,22.04
2018-09-25T07:02:17.276Z,22.05
2018-09-25T07:04:50.858Z,22.04
2018-09-25T07:07:24.535Z,22.04
2018-09-25T07:09:58.161Z,22.05
2018-09-25T07:12:31.669Z,22.05
2018-09-25T07:15:05.155Z,22.06
2018-09-25T07:17:38.838Z,22.04
2018-09-25T07:20:12.306Z,22.05
2018-09-25T07:22:45.935Z,22.05
2018-09-25T07:25:19.499Z,22.07
2018-09-25T07:27:53.196Z,22.07
2018-09-25T07:30:26.631Z,22.06
2018-09-25T07:33:00.307Z,22.06
2018-09-25T07:35:33.758Z,22.07
2018-09-25T07:38:07.306Z,22.07
2018-09-25T07:40:41.005Z,22.07
2018-09-25T07:43:14.619Z,22.06
2018-09-25T07:45:48.216Z,22.07
2018-09-25T07:48:21.905Z,22.08
2018-09-25T07:50:55.350Z,22.07
2018-09-25T07:53:28.793Z,22.07
2018-09-25T07:56:02.391Z,22.08
2018-09-25T07:58:36.015Z,22.10
2018-09-25T08:01:09.551Z,22.07
2018-09-25T08:03:43.379Z,22.08
2018-09-25T08:06:16.899Z,22.08
2018-09-25T08:08:50.517Z,22.08
2018-09-25T08:11:24.147Z,22.08
2018-09-25T08:13:57.555Z,22.08
2018-09-25T08:16:31.003Z,22.09
2018-09-25T08:19:04.623Z,22.08
2018-09-25T08:21:38.125Z,22.08
2018-09-25T08:24:12.031Z,22.07
2018-09-25T08:26:45.639Z,22.08
2018-09-25T08:29:19.579Z,22.08
2018-09-25T08:31:53.376Z,22.08
2018-09-25T08:34:27.002Z,22.08
2018-09-25T08:37:00.706Z,22.08
2018-09-25T08:39:34.372Z,22.08
2018-09-25T08:42:07.754Z,22.08
2018-09-25T08:44:41.497Z,22.09
2018-09-25T08:47:15.247Z,22.08
2018-09-25T08:49:48.990Z,22.07
2018-09-25T08:52:22.455Z,22.07
2018-09-25T08:54:56.067Z,22.06
2018-09-25T08:57:29.695Z,22.04
2018-09-25T09:00:03.409Z,22.07
2018-09-25T09:02:37.032Z,22.06
2018-09-25T09:05:10.893Z,22.06
2018-09-25T09:07:44.633Z,22.05
2018-09-25T09:10:18.328Z,22.06
2018-09-25T09:12:51.980Z,22.06
2018-09-25T09:15:25.460Z,22.05
2018-09-25T09:17:59.169Z,22.06
2018-09-25T09:20:32.858Z,22.06
2018-09-25T09:23:06.311Z,22.07
2018-09-25T09:25:40.033Z,22.07
2018-09-25T09:28:13.493Z,22.07
2018-09-25T09:30:47.203Z,22.07
2018-09-25T09:33:20.637Z,22.07
2018-09-25T09:35:54.239Z,22.10
2018-09-25T09:38:27.843Z,22.08
2018-09-25T09:41:01.505Z,22.09
2018-09-25T09:43:34.967Z,22.09
2018-09-25T09:46:08.535Z,22.08
2018-09-25T09:48:42.203Z,22.08
2018-09-25T09:51:15.757Z,22.08
2018-09-25T09:53:49.322Z,22.08
2018-09-25T09:56:22.901Z,22.08
2018-09-25T09:58:56.331Z,22.09
2018-09-25T10:01:29.891Z,22.08
2018-09-25T10:04:03.298Z,22.08
2018-09-25T10:06:36.775Z,22.12
2018-09-25T10:09:13.550Z,22.11
2018-09-25T10:11:47.601Z,22.12
2018-09-25T10:14:21.888Z,22.11
2018-09-25T10:16:55.283Z,22.08
2018-09-25T10:19:28.767Z,22.08
2018-09-25T10:22:02.431Z,22.08
2018-09-25T10:24:36.083Z,22.08
2018-09-25T10:27:09.648Z,22.07
2018-09-25T10:29:43.276Z,22.08
2018-09-25T10:32:16.907Z,22.08
2018-09-25T10:34:50.594Z,22.06
2018-09-25T10:37:24.313Z,22.08
2018-09-25T10:39:58.115Z,22.06
2018-09-25T10:42:31.975Z,22.12
2018-09-25T10:45:05.691Z,22.11
2018-09-25T10:47:39.297Z,22.10
2018-09-25T10:50:13.085Z,22.12
2018-09-25T10:52:46.487Z,22.11
2018-09-25T10:55:20.123Z,22.13
2018-09-25T10:57:53.657Z,22.11
2018-09-25T11:00:27.308Z,22.14
2018-09-25T11:03:00.836Z,22.14
2018-09-25T11:05:34.354Z,22.11
2018-09-25T11:08:07.931Z,22.11
2018-09-25T11:10:41.348Z,22.11
2018-09-25T11:13:14.913Z,22.11
2018-09-25T11:15:48.494Z,22.11
2018-09-25T11:18:22.130Z,22.11
2018-09-25T11:20:55.627Z,22.11
2018-09-25T11:23:29.150Z,22.12
2018-09-25T11:26:02.704Z,22.14
2018-09-25T11:28:36.375Z,22.14
2018-09-25T11:31:10.097Z,22.12
2018-09-25T11:33:43.865Z,22.14
2018-09-25T11:36:17.630Z,22.13
2018-09-25T11:38:51.147Z,22.12
2018-09-25T11:41:24.795Z,22.11
2018-09-25T11:43:58.461Z,22.09
2018-09-25T11:46:32.055Z,22.10
2018-09-25T11:49:05.672Z,22.12
2018-09-25T11:51:39.296Z,22.11
2018-09-25T11:54:13.046Z,22.13
2018-09-25T11:56:46.714Z,22.12
2018-09-25T11:59:20.437Z,22.13
2018-09-25T12:01:53.939Z,22.10
2018-09-25T12:04:27.643Z,22.09
2018-09-25T12:07:01.124Z,22.13
2018-09-25T12:09:34.867Z,22.14
2018-09-25T12:12:08.376Z,22.11
2018-09-25T12:14:42.021Z,22.10
2018-09-25T12:17:16.566Z,22.11
2018-09-25T12:19:50.044Z,22.10
2018-09-25T12:22:23.585Z,22.08
2018-09-25T12:24:57.091Z,22.11
2018-09-25T12:27:30.651Z,22.10
2018-09-25T12:30:04.175Z,22.09
2018-09-25T12:32:37.761Z,22.07
2018-09-25T12:35:11.353Z,22.10
2018-09-25T12:37:44.829Z,22.07
2018-09-25T12:40:18.328Z,22.08
2018-09-25T12:42:52.059Z,22.10
2018-09-25T12:45:25.649Z,22.24
2018-09-25T12:47:59.255Z,22.36
2018-09-25T12:50:32.763Z,22.40
2018-09-25T12:53:06.335Z,22.40
2018-09-25T12:55:39.942Z,22.51
2018-09-25T13:21:13.101Z,26.18
2018-09-25T13:23:49.216Z,27.50
2018-09-25T13:26:23.948Z,28.48
2018-09-25T13:28:59.390Z,29.29
2018-09-25T13:31:34.088Z,29.03
2018-09-25T13:34:12.127Z,29.53
2018-09-25T13:36:49.715Z,29.52
2018-09-25T13:39:24.393Z,30.03
2018-09-25T13:41:58.979Z,30.38
2018-09-25T13:49:50.319Z,29.55
2018-09-25T13:52:27.536Z,27.49
2018-09-25T13:55:03.670Z,28.22
2018-09-25T13:57:39.454Z,28.49
2018-09-25T14:00:16.818Z,28.63
2018-09-25T14:02:53.586Z,29.23
2018-09-25T14:05:31.080Z,29.71
2018-09-25T14:08:07.141Z,30.15
2018-09-25T14:10:44.005Z,30.26
2018-09-25T14:13:19.562Z,30.52
2018-09-25T14:15:56.179Z,30.60
2018-09-25T14:18:31.640Z,30.87
2018-09-25T14:21:09.381Z,30.58
2018-09-25T14:23:47.193Z,29.82
2018-09-25T14:26:21.240Z,30.36
2018-09-25T14:28:57.351Z,29.60
2018-09-25T14:32:04.440Z,30.16
2018-09-25T14:34:41.089Z,29.70
2018-09-25T14:37:16.497Z,29.50
2018-09-25T14:39:50.573Z,29.79
2018-09-25T14:42:25.374Z,29.98
2018-09-25T14:45:00.006Z,29.68
2018-09-25T14:47:35.559Z,29.74
2018-09-25T14:50:10.456Z,29.78
2018-09-25T14:52:46.839Z,29.56
2018-09-25T14:55:21.696Z,29.43
2018-09-25T14:57:58.151Z,29.48
2018-09-25T15:00:35.740Z,28.73
2018-09-25T15:03:10.574Z,29.29
2018-09-25T15:05:48.228Z,28.83
2018-09-25T15:08:29.986Z,28.75
2018-09-25T15:11:09.817Z,28.67
2018-09-25T15:13:44.010Z,28.21
2018-09-25T15:16:18.778Z,28.21
2018-09-25T15:18:54.333Z,28.09
2018-09-25T15:21:31.597Z,27.97
2018-09-25T15:24:09.724Z,27.83
2018-09-25T15:26:49.523Z,27.08
2018-09-25T15:29:27.122Z,26.44
2018-09-25T15:32:00.869Z,26.07
2018-09-25T15:34:36.561Z,25.74
2018-09-25T15:37:12.679Z,25.82
2018-09-25T15:39:49.360Z,25.63
2018-09-25T15:42:25.209Z,25.79
2018-09-25T15:45:04.643Z,26.17
2018-09-25T15:47:41.010Z,26.51
2018-09-25T15:50:17.151Z,26.30
2018-09-25T15:52:55.398Z,26.26
2018-09-25T15:55:36.338Z,26.08
2018-09-25T15:58:17.432Z,26.39
2018-09-25T16:00:56.138Z,26.39
2018-09-25T16:03:31.433Z,26.71
2018-09-25T16:08:47.325Z,26.49
2018-09-25T16:11:22.645Z,26.73
2018-09-25T16:13:57.922Z,26.48
2018-09-25T16:16:33.834Z,25.76
2018-09-25T16:19:11.542Z,24.80
2018-09-25T16:21:45.450Z,24.49
2018-09-25T16:24:24.291Z,24.31
2018-09-25T16:27:01.447Z,24.28
2018-09-25T16:29:38.696Z,23.85
2018-09-25T16:32:14.702Z,23.31
2018-09-25T16:34:50.455Z,22.98
2018-09-25T16:37:26.297Z,22.61
2018-09-25T16:40:04.926Z,21.39
2018-09-25T16:42:42.433Z,20.40
2018-09-25T16:45:18.981Z,19.73
2018-09-25T16:47:57.916Z,19.00
2018-09-25T16:50:35.107Z,18.11
2018-09-25T16:53:12.185Z,17.69
2018-09-25T16:55:50.658Z,17.31
2018-09-25T16:58:30.247Z,16.88
2018-09-25T17:01:06.017Z,16.55
2018-09-25T17:03:42.048Z,16.30
2018-09-25T17:06:17.499Z,15.89
2018-09-25T17:08:53.455Z,15.62
2018-09-25T17:11:30.540Z,15.33
2018-09-25T17:14:07.417Z,15.05
2018-09-25T17:16:42.161Z,14.92
2018-09-25T17:19:16.770Z,14.69
2018-09-25T17:21:53.956Z,14.51
2018-09-25T17:24:30.450Z,14.33
2018-09-25T17:27:06.074Z,14.18
2018-09-25T17:29:41.102Z,14.07
2018-09-25T17:32:19.216Z,13.82
2018-09-25T17:35:01.831Z,13.72
2018-09-25T17:37:41.884Z,13.51
2018-09-25T17:40:16.206Z,13.40
2018-09-25T17:42:51.842Z,13.28
2018-09-25T17:45:24.758Z,13.15
2018-09-25T17:47:57.686Z,13.05
2018-09-25T17:50:30.746Z,12.95
2018-09-25T17:53:03.714Z,12.80
2018-09-25T17:55:36.702Z,12.71
2018-09-25T17:58:09.795Z,12.58
2018-09-25T18:00:42.767Z,12.46
2018-09-25T18:03:16.350Z,12.40
2018-09-25T18:05:49.370Z,12.30
2018-09-25T18:08:22.350Z,12.23
2018-09-25T18:11:26.525Z,12.16
2018-09-25T18:13:59.702Z,12.07
2018-09-25T18:16:32.750Z,13.39
2018-09-25T18:19:05.780Z,14.23
2018-09-25T18:21:38.861Z,14.83
2018-09-25T18:24:11.964Z,15.31
2018-09-25T18:26:44.911Z,15.38
2018-09-25T18:29:17.977Z,15.49
2018-09-25T18:31:50.973Z,15.89
2018-09-25T18:34:23.858Z,15.72
2018-09-25T18:36:56.959Z,15.79
2018-09-25T18:39:30.039Z,16.06
2018-09-25T18:42:03.028Z,16.71
2018-09-25T18:44:35.999Z,16.55
2018-09-25T18:47:08.976Z,15.79
2018-09-25T18:49:42.032Z,16.36
2018-09-25T18:52:15.084Z,16.66
2018-09-25T18:54:48.186Z,16.27
2018-09-25T18:57:21.152Z,16.28
2018-09-25T18:59:54.245Z,16.50
2018-09-25T19:02:27.208Z,16.42
2018-09-25T19:05:00.164Z,16.36
2018-09-25T19:07:33.242Z,16.34
2018-09-25T19:10:06.411Z,16.32
2018-09-25T19:12:39.311Z,16.06
2018-09-25T19:15:12.335Z,15.91
2018-09-25T19:17:45.526Z,15.80
2018-09-25T19:20:18.457Z,16.30
2018-09-25T19:22:51.437Z,16.12
2018-09-25T19:25:24.448Z,16.26
2018-09-25T19:27:57.590Z,15.84
2018-09-25T19:30:30.665Z,15.81
2018-09-25T19:33:03.605Z,15.51
2018-09-25T19:35:36.644Z,15.85
2018-09-25T19:38:09.487Z,16.28
2018-09-25T19:40:42.526Z,15.78
2018-09-25T19:43:15.538Z,15.85
2018-09-25T19:45:48.612Z,16.11
2018-09-25T19:48:21.741Z,15.97
2018-09-25T19:50:54.819Z,15.84
2018-09-25T19:53:27.788Z,15.75
2018-09-25T19:56:00.862Z,15.77
2018-09-25T19:58:33.792Z,15.31
2018-09-25T20:01:06.997Z,15.44
2018-09-25T20:03:39.939Z,15.31
2018-09-25T20:06:13.249Z,15.22
2018-09-25T20:08:47.033Z,14.52
2018-09-25T20:11:20.032Z,14.46
2018-09-25T20:13:53.144Z,14.32
2018-09-25T20:16:26.206Z,14.06
2018-09-25T20:18:59.168Z,14.24
2018-09-25T20:21:32.182Z,13.91
2018-09-25T20:24:05.468Z,13.48
2018-09-25T20:26:38.363Z,13.62
2018-09-25T20:29:11.701Z,13.35
2018-09-25T20:31:44.749Z,13.41
2018-09-25T20:34:17.840Z,12.98
2018-09-25T20:36:50.688Z,12.75
2018-09-25T20:39:23.606Z,13.67
2018-09-25T20:41:56.570Z,12.84
2018-09-25T20:44:29.554Z,12.86
2018-09-25T20:47:02.528Z,12.41
2018-09-25T20:49:35.466Z,12.39
2018-09-25T20:52:08.544Z,12.66
2018-09-25T20:54:41.513Z,12.04
2018-09-25T20:57:14.545Z,12.03
2018-09-25T20:59:47.458Z,11.71
2018-09-25T21:02:20.599Z,11.31
2018-09-25T21:04:53.462Z,11.49
2018-09-25T21:07:26.477Z,11.67
2018-09-25T21:09:59.396Z,11.73
2018-09-25T21:12:32.682Z,11.52
2018-09-25T21:15:05.798Z,11.53
2018-09-25T21:17:38.722Z,12.40
2018-09-25T21:20:11.776Z,11.24
2018-09-25T21:22:44.876Z,11.16
2018-09-25T21:25:17.850Z,11.59
2018-09-25T21:27:50.685Z,11.27
2018-09-25T21:30:23.641Z,11.11
2018-09-25T21:32:56.576Z,10.89
2018-09-25T21:35:29.683Z,10.57
2018-09-25T21:38:02.743Z,11.02
2018-09-25T21:40:36.199Z,10.93
2018-09-25T21:43:09.696Z,10.96
2018-09-25T21:45:42.763Z,11.49
2018-09-25T21:48:15.728Z,11.33
2018-09-25T21:50:48.796Z,11.25
2018-09-25T21:53:21.778Z,11.09
2018-09-25T21:55:54.817Z,10.79
2018-09-25T21:58:27.721Z,10.69
2018-09-25T22:01:00.695Z,11.73
2018-09-25T22:03:33.632Z,11.11
2018-09-25T22:06:07.281Z,11.33
2018-09-25T22:08:40.458Z,11.25
2018-09-25T22:11:13.361Z,11.55
2018-09-25T22:13:46.484Z,12.13
2018-09-25T22:16:19.374Z,11.93
2018-09-25T22:18:52.403Z,11.91
2018-09-25T22:21:25.310Z,12.41
2018-09-25T22:23:58.840Z,11.68
2018-09-25T22:26:31.760Z,11.79
2018-09-25T22:29:04.789Z,11.16
2018-09-25T22:31:37.656Z,11.46
2018-09-25T22:34:10.610Z,11.18
2018-09-25T22:36:44.225Z,11.70
2018-09-25T22:39:17.088Z,10.90
2018-09-25T22:41:50.031Z,11.08
2018-09-25T22:44:23.054Z,10.71
2018-09-25T22:46:56.147Z,10.63
2018-09-25T22:49:29.103Z,10.31
2018-09-25T22:52:02.073Z,10.10
2018-09-25T22:54:35.566Z,9.52
2018-09-25T22:57:08.463Z,10.16
2018-09-25T22:59:41.454Z,10.33
2018-09-25T23:02:14.800Z,9.48
2018-09-25T23:04:47.731Z,9.66
2018-09-25T23:07:20.719Z,9.21
2018-09-25T23:09:53.615Z,8.77
2018-09-25T23:12:26.598Z,8.60
2018-09-25T23:14:59.604Z,8.82
2018-09-25T23:17:32.651Z,8.77
2018-09-25T23:20:05.652Z,8.71
2018-09-25T23:22:38.649Z,8.94
2018-09-25T23:25:11.579Z,9.08
2018-09-25T23:27:44.716Z,8.72
2018-09-25T23:30:17.702Z,9.76
2018-09-25T23:32:50.804Z,9.81
2018-09-25T23:35:23.753Z,9.83
2018-09-25T23:37:56.691Z,10.49
2018-09-25T23:40:47.573Z,11.25
2018-09-25T23:43:24.523Z,11.99
2018-09-25T23:46:02.442Z,12.18
2018-09-25T23:48:37.288Z,11.47
2018-09-25T23:51:10.295Z,12.20
2018-09-25T23:53:44.022Z,11.78
2018-09-25T23:56:17.769Z,11.00
2018-09-25T23:58:49.926Z,10.73
